sensor_id;sensor_type;location;lat;lon;timestamp;P1;durP1;ratioP1;P2;durP2;ratioP2
13605;SDS011;6874;52.084;5.090;2023-05-07T00:00:16;225.17;;;217.37;;
13605;SDS011;6874;52.084;5.090;2023-05-07T00:02:44;215.57;;;208.03;;
13605;SDS011;6874;52.084;5.090;2023-05-07T00:05:10;219.37;;;211.80;;
13605;SDS011;6874;52.084;5.090;2023-05-07T00:07:36;220.60;;;213.00;;
13605;SDS011;6874;52.084;5.090;2023-05-07T00:10:02;226.40;;;218.70;;
13605;SDS011;6874;52.084;5.090;2023-05-07T00:12:28;213.57;;;206.23;;
13605;SDS011;6874;52.084;5.090;2023-05-07T00:14:56;217.93;;;210.43;;
13605;SDS011;6874;52.084;5.090;2023-05-07T00:17:22;223.47;;;215.83;;
13605;SDS011;6874;52.084;5.090;2023-05-07T00:19:47;228.73;;;220.83;;
13605;SDS011;6874;52.084;5.090;2023-05-07T00:22:13;239.53;;;231.37;;
13605;SDS011;6874;52.084;5.090;2023-05-07T00:24:39;249.00;;;240.33;;
13605;SDS011;6874;52.084;5.090;2023-05-07T00:27:04;242.03;;;233.60;;
13605;SDS011;6874;52.084;5.090;2023-05-07T00:29:30;250.77;;;242.07;;
13605;SDS011;6874;52.084;5.090;2023-05-07T00:31:55;248.93;;;240.23;;
13605;SDS011;6874;52.084;5.090;2023-05-07T00:34:21;266.43;;;257.10;;
13605;SDS011;6874;52.084;5.090;2023-05-07T00:36:47;264.17;;;254.90;;
13605;SDS011;6874;52.084;5.090;2023-05-07T00:39:12;271.30;;;261.77;;
13605;SDS011;6874;52.084;5.090;2023-05-07T00:41:38;278.77;;;269.07;;
13605;SDS011;6874;52.084;5.090;2023-05-07T00:44:04;269.00;;;259.50;;
13605;SDS011;6874;52.084;5.090;2023-05-07T00:46:29;278.70;;;268.90;;
13605;SDS011;6874;52.084;5.090;2023-05-07T00:48:56;277.53;;;267.83;;
13605;SDS011;6874;52.084;5.090;2023-05-07T00:51:23;274.13;;;264.47;;
13605;SDS011;6874;52.084;5.090;2023-05-07T00:53:50;266.60;;;257.33;;
13605;SDS011;6874;52.084;5.090;2023-05-07T00:56:16;279.33;;;269.57;;
13605;SDS011;6874;52.084;5.090;2023-05-07T00:58:41;266.70;;;257.33;;
13605;SDS011;6874;52.084;5.090;2023-05-07T01:01:07;265.87;;;256.60;;
13605;SDS011;6874;52.084;5.090;2023-05-07T01:03:33;255.83;;;246.90;;
13605;SDS011;6874;52.084;5.090;2023-05-07T01:05:59;251.80;;;243.10;;
13605;SDS011;6874;52.084;5.090;2023-05-07T01:08:26;259.30;;;250.30;;
13605;SDS011;6874;52.084;5.090;2023-05-07T01:10:54;259.93;;;251.00;;
13605;SDS011;6874;52.084;5.090;2023-05-07T01:13:21;249.93;;;241.30;;
13605;SDS011;6874;52.084;5.090;2023-05-07T01:15:47;252.00;;;243.23;;
13605;SDS011;6874;52.084;5.090;2023-05-07T01:18:12;242.53;;;234.17;;
13605;SDS011;6874;52.084;5.090;2023-05-07T01:20:38;240.43;;;232.10;;
13605;SDS011;6874;52.084;5.090;2023-05-07T01:23:04;246.93;;;238.37;;
13605;SDS011;6874;52.084;5.090;2023-05-07T01:25:32;247.63;;;239.13;;
13605;SDS011;6874;52.084;5.090;2023-05-07T01:27:58;243.47;;;235.10;;
13605;SDS011;6874;52.084;5.090;2023-05-07T01:30:26;242.97;;;234.57;;
13605;SDS011;6874;52.084;5.090;2023-05-07T01:32:53;252.77;;;244.07;;
13605;SDS011;6874;52.084;5.090;2023-05-07T01:35:29;237.03;;;228.87;;
13605;SDS011;6874;52.084;5.090;2023-05-07T01:37:57;249.53;;;240.93;;
13605;SDS011;6874;52.084;5.090;2023-05-07T01:40:24;255.47;;;246.63;;
13605;SDS011;6874;52.084;5.090;2023-05-07T01:42:50;259.93;;;250.93;;
13605;SDS011;6874;52.084;5.090;2023-05-07T01:45:17;256.63;;;247.73;;
13605;SDS011;6874;52.084;5.090;2023-05-07T01:47:42;264.43;;;255.27;;
13605;SDS011;6874;52.084;5.090;2023-05-07T01:50:09;260.70;;;251.63;;
13605;SDS011;6874;52.084;5.090;2023-05-07T01:52:35;245.33;;;236.77;;
13605;SDS011;6874;52.084;5.090;2023-05-07T01:55:02;251.93;;;243.27;;
13605;SDS011;6874;52.084;5.090;2023-05-07T01:57:28;252.87;;;244.10;;
13605;SDS011;6874;52.084;5.090;2023-05-07T01:59:54;253.87;;;245.03;;
13605;SDS011;6874;52.084;5.090;2023-05-07T02:02:19;249.87;;;241.17;;
13605;SDS011;6874;52.084;5.090;2023-05-07T02:04:45;248.50;;;239.83;;
13605;SDS011;6874;52.084;5.090;2023-05-07T02:07:10;251.87;;;243.07;;
13605;SDS011;6874;52.084;5.090;2023-05-07T02:09:36;245.03;;;236.43;;
13605;SDS011;6874;52.084;5.090;2023-05-07T02:12:01;244.10;;;235.50;;
13605;SDS011;6874;52.084;5.090;2023-05-07T02:14:27;245.17;;;236.47;;
13605;SDS011;6874;52.084;5.090;2023-05-07T02:16:53;248.70;;;239.90;;
13605;SDS011;6874;52.084;5.090;2023-05-07T02:19:18;246.63;;;237.93;;
13605;SDS011;6874;52.084;5.090;2023-05-07T02:21:46;245.17;;;236.57;;
13605;SDS011;6874;52.084;5.090;2023-05-07T02:24:11;243.10;;;234.47;;
13605;SDS011;6874;52.084;5.090;2023-05-07T02:26:37;236.07;;;227.77;;
13605;SDS011;6874;52.084;5.090;2023-05-07T02:29:02;246.17;;;237.50;;
13605;SDS011;6874;52.084;5.090;2023-05-07T02:31:28;230.73;;;222.63;;
13605;SDS011;6874;52.084;5.090;2023-05-07T02:33:53;238.53;;;230.07;;
13605;SDS011;6874;52.084;5.090;2023-05-07T02:36:19;242.23;;;233.73;;
13605;SDS011;6874;52.084;5.090;2023-05-07T02:38:44;236.53;;;228.27;;
13605;SDS011;6874;52.084;5.090;2023-05-07T02:41:10;224.97;;;217.10;;
13605;SDS011;6874;52.084;5.090;2023-05-07T02:43:36;231.87;;;223.70;;
13605;SDS011;6874;52.084;5.090;2023-05-07T02:46:05;229.00;;;220.93;;
13605;SDS011;6874;52.084;5.090;2023-05-07T02:48:32;218.70;;;211.00;;
13605;SDS011;6874;52.084;5.090;2023-05-07T02:50:58;224.30;;;216.40;;
13605;SDS011;6874;52.084;5.090;2023-05-07T02:53:24;228.77;;;220.77;;
13605;SDS011;6874;52.084;5.090;2023-05-07T02:55:55;222.30;;;214.53;;
13605;SDS011;6874;52.084;5.090;2023-05-07T02:58:21;222.17;;;214.37;;
13605;SDS011;6874;52.084;5.090;2023-05-07T03:00:47;219.43;;;211.77;;
13605;SDS011;6874;52.084;5.090;2023-05-07T03:03:13;217.57;;;209.90;;
13605;SDS011;6874;52.084;5.090;2023-05-07T03:05:38;214.70;;;207.23;;
13605;SDS011;6874;52.084;5.090;2023-05-07T03:08:04;216.47;;;208.90;;
13605;SDS011;6874;52.084;5.090;2023-05-07T03:10:30;210.90;;;203.53;;
13605;SDS011;6874;52.084;5.090;2023-05-07T03:12:55;207.37;;;200.13;;
13605;SDS011;6874;52.084;5.090;2023-05-07T03:15:21;203.80;;;196.67;;
13605;SDS011;6874;52.084;5.090;2023-05-07T03:17:47;200.17;;;193.13;;
13605;SDS011;6874;52.084;5.090;2023-05-07T03:20:13;201.40;;;194.33;;
13605;SDS011;6874;52.084;5.090;2023-05-07T03:22:38;205.07;;;197.93;;
13605;SDS011;6874;52.084;5.090;2023-05-07T03:25:05;198.50;;;191.57;;
13605;SDS011;6874;52.084;5.090;2023-05-07T03:27:31;196.23;;;189.40;;
13605;SDS011;6874;52.084;5.090;2023-05-07T03:29:56;188.70;;;182.20;;
13605;SDS011;6874;52.084;5.090;2023-05-07T03:32:22;192.27;;;185.57;;
13605;SDS011;6874;52.084;5.090;2023-05-07T03:34:47;193.30;;;186.63;;
13605;SDS011;6874;52.084;5.090;2023-05-07T03:37:13;185.87;;;179.43;;
13605;SDS011;6874;52.084;5.090;2023-05-07T03:39:39;180.43;;;174.10;;
13605;SDS011;6874;52.084;5.090;2023-05-07T03:42:04;179.17;;;172.93;;
13605;SDS011;6874;52.084;5.090;2023-05-07T03:44:30;177.07;;;170.97;;
13605;SDS011;6874;52.084;5.090;2023-05-07T03:46:55;177.30;;;171.20;;
13605;SDS011;6874;52.084;5.090;2023-05-07T03:49:21;172.47;;;166.47;;
13605;SDS011;6874;52.084;5.090;2023-05-07T03:51:46;174.07;;;168.07;;
13605;SDS011;6874;52.084;5.090;2023-05-07T03:54:12;167.80;;;162.10;;
13605;SDS011;6874;52.084;5.090;2023-05-07T03:56:38;162.27;;;156.67;;
13605;SDS011;6874;52.084;5.090;2023-05-07T03:59:03;152.57;;;147.30;;
13605;SDS011;6874;52.084;5.090;2023-05-07T04:01:29;156.53;;;151.13;;
13605;SDS011;6874;52.084;5.090;2023-05-07T04:03:54;151.70;;;146.50;;
13605;SDS011;6874;52.084;5.090;2023-05-07T04:06:20;140.93;;;136.03;;
13605;SDS011;6874;52.084;5.090;2023-05-07T04:08:46;130.60;;;126.03;;
13605;SDS011;6874;52.084;5.090;2023-05-07T04:11:11;128.10;;;123.60;;
13605;SDS011;6874;52.084;5.090;2023-05-07T04:13:37;127.10;;;122.63;;
13605;SDS011;6874;52.084;5.090;2023-05-07T04:16:03;118.10;;;113.93;;
13605;SDS011;6874;52.084;5.090;2023-05-07T04:18:30;118.80;;;114.60;;
13605;SDS011;6874;52.084;5.090;2023-05-07T04:20:55;117.60;;;113.50;;
13605;SDS011;6874;52.084;5.090;2023-05-07T04:23:21;112.43;;;108.47;;
13605;SDS011;6874;52.084;5.090;2023-05-07T04:25:46;112.93;;;108.97;;
13605;SDS011;6874;52.084;5.090;2023-05-07T04:28:12;108.07;;;104.33;;
13605;SDS011;6874;52.084;5.090;2023-05-07T04:30:38;104.00;;;100.33;;
13605;SDS011;6874;52.084;5.090;2023-05-07T04:33:04;102.37;;;98.83;;
13605;SDS011;6874;52.084;5.090;2023-05-07T04:35:29;107.07;;;103.30;;
13605;SDS011;6874;52.084;5.090;2023-05-07T04:37:55;104.63;;;101.00;;
13605;SDS011;6874;52.084;5.090;2023-05-07T04:40:20;96.93;;;93.57;;
13605;SDS011;6874;52.084;5.090;2023-05-07T04:42:46;99.87;;;96.33;;
13605;SDS011;6874;52.084;5.090;2023-05-07T04:45:11;99.00;;;95.60;;
13605;SDS011;6874;52.084;5.090;2023-05-07T04:47:37;96.23;;;92.93;;
13605;SDS011;6874;52.084;5.090;2023-05-07T04:50:04;87.47;;;84.43;;
13605;SDS011;6874;52.084;5.090;2023-05-07T04:52:31;85.30;;;82.33;;
13605;SDS011;6874;52.084;5.090;2023-05-07T04:54:58;86.77;;;83.73;;
13605;SDS011;6874;52.084;5.090;2023-05-07T04:57:24;88.00;;;85.00;;
13605;SDS011;6874;52.084;5.090;2023-05-07T04:59:51;85.83;;;82.87;;
13605;SDS011;6874;52.084;5.090;2023-05-07T05:02:17;81.13;;;78.33;;
13605;SDS011;6874;52.084;5.090;2023-05-07T05:04:42;90.17;;;87.07;;
13605;SDS011;6874;52.084;5.090;2023-05-07T05:07:08;86.10;;;83.10;;
13605;SDS011;6874;52.084;5.090;2023-05-07T05:09:33;82.10;;;79.27;;
13605;SDS011;6874;52.084;5.090;2023-05-07T05:11:59;79.23;;;76.50;;
13605;SDS011;6874;52.084;5.090;2023-05-07T05:14:25;84.50;;;81.57;;
13605;SDS011;6874;52.084;5.090;2023-05-07T05:16:50;86.10;;;83.13;;
13605;SDS011;6874;52.084;5.090;2023-05-07T05:19:16;83.10;;;80.27;;
13605;SDS011;6874;52.084;5.090;2023-05-07T05:21:41;83.43;;;80.53;;
13605;SDS011;6874;52.084;5.090;2023-05-07T05:24:07;82.93;;;80.07;;
13605;SDS011;6874;52.084;5.090;2023-05-07T05:26:33;87.07;;;84.07;;
13605;SDS011;6874;52.084;5.090;2023-05-07T05:28:59;90.73;;;87.63;;
13605;SDS011;6874;52.084;5.090;2023-05-07T05:31:25;93.53;;;90.33;;
13605;SDS011;6874;52.084;5.090;2023-05-07T05:33:50;94.27;;;91.03;;
13605;SDS011;6874;52.084;5.090;2023-05-07T05:36:16;91.00;;;87.83;;
13605;SDS011;6874;52.084;5.090;2023-05-07T05:38:42;90.77;;;87.57;;
13605;SDS011;6874;52.084;5.090;2023-05-07T05:41:07;92.03;;;88.83;;
13605;SDS011;6874;52.084;5.090;2023-05-07T05:43:33;107.27;;;103.57;;
13605;SDS011;6874;52.084;5.090;2023-05-07T05:45:59;104.20;;;100.60;;
13605;SDS011;6874;52.084;5.090;2023-05-07T05:48:25;110.50;;;106.70;;
13605;SDS011;6874;52.084;5.090;2023-05-07T05:50:51;115.97;;;112.00;;
13605;SDS011;6874;52.084;5.090;2023-05-07T05:53:16;105.23;;;101.63;;
13605;SDS011;6874;52.084;5.090;2023-05-07T05:55:42;107.17;;;103.50;;
13605;SDS011;6874;52.084;5.090;2023-05-07T05:58:08;101.90;;;98.47;;
13605;SDS011;6874;52.084;5.090;2023-05-07T06:00:34;102.57;;;99.03;;
13605;SDS011;6874;52.084;5.090;2023-05-07T06:03:00;101.37;;;97.90;;
13605;SDS011;6874;52.084;5.090;2023-05-07T06:05:25;100.13;;;96.70;;
13605;SDS011;6874;52.084;5.090;2023-05-07T06:07:51;101.40;;;97.93;;
13605;SDS011;6874;52.084;5.090;2023-05-07T06:10:16;103.27;;;99.73;;
13605;SDS011;6874;52.084;5.090;2023-05-07T06:12:42;105.87;;;102.27;;
13605;SDS011;6874;52.084;5.090;2023-05-07T06:15:08;106.43;;;102.73;;
13605;SDS011;6874;52.084;5.090;2023-05-07T06:17:34;105.53;;;101.90;;
13605;SDS011;6874;52.084;5.090;2023-05-07T06:19:59;102.23;;;98.77;;
13605;SDS011;6874;52.084;5.090;2023-05-07T06:22:25;99.87;;;96.47;;
13605;SDS011;6874;52.084;5.090;2023-05-07T06:24:50;106.70;;;103.03;;
13605;SDS011;6874;52.084;5.090;2023-05-07T06:27:16;102.77;;;99.27;;
13605;SDS011;6874;52.084;5.090;2023-05-07T06:29:42;100.67;;;97.23;;
13605;SDS011;6874;52.084;5.090;2023-05-07T06:32:08;103.67;;;100.10;;
13605;SDS011;6874;52.084;5.090;2023-05-07T06:34:35;103.77;;;100.20;;
13605;SDS011;6874;52.084;5.090;2023-05-07T06:37:01;101.77;;;98.27;;
13605;SDS011;6874;52.084;5.090;2023-05-07T06:39:26;105.57;;;101.93;;
13605;SDS011;6874;52.084;5.090;2023-05-07T06:41:52;105.60;;;101.97;;
13605;SDS011;6874;52.084;5.090;2023-05-07T06:44:18;103.60;;;100.03;;
13605;SDS011;6874;52.084;5.090;2023-05-07T06:46:43;103.07;;;99.50;;
13605;SDS011;6874;52.084;5.090;2023-05-07T06:49:10;99.50;;;96.13;;
13605;SDS011;6874;52.084;5.090;2023-05-07T06:51:38;102.13;;;98.63;;
13605;SDS011;6874;52.084;5.090;2023-05-07T06:54:04;104.27;;;100.67;;
13605;SDS011;6874;52.084;5.090;2023-05-07T06:56:30;106.00;;;102.33;;
13605;SDS011;6874;52.084;5.090;2023-05-07T06:58:56;100.87;;;97.40;;
13605;SDS011;6874;52.084;5.090;2023-05-07T07:01:21;108.00;;;104.33;;
13605;SDS011;6874;52.084;5.090;2023-05-07T07:03:47;103.07;;;99.53;;
13605;SDS011;6874;52.084;5.090;2023-05-07T07:06:12;104.77;;;101.17;;
13605;SDS011;6874;52.084;5.090;2023-05-07T07:08:38;104.43;;;100.87;;
13605;SDS011;6874;52.084;5.090;2023-05-07T07:11:04;103.87;;;100.30;;
13605;SDS011;6874;52.084;5.090;2023-05-07T07:13:30;107.20;;;103.57;;
13605;SDS011;6874;52.084;5.090;2023-05-07T07:15:55;100.63;;;97.20;;
13605;SDS011;6874;52.084;5.090;2023-05-07T07:18:21;94.03;;;90.83;;
13605;SDS011;6874;52.084;5.090;2023-05-07T07:20:47;86.77;;;83.80;;
13605;SDS011;6874;52.084;5.090;2023-05-07T07:23:13;86.47;;;83.57;;
13605;SDS011;6874;52.084;5.090;2023-05-07T07:25:42;91.20;;;88.10;;
13605;SDS011;6874;52.084;5.090;2023-05-07T07:28:08;91.10;;;88.00;;
13605;SDS011;6874;52.084;5.090;2023-05-07T07:30:33;88.33;;;85.33;;
13605;SDS011;6874;52.084;5.090;2023-05-07T07:32:59;89.23;;;86.23;;
13605;SDS011;6874;52.084;5.090;2023-05-07T07:35:30;84.63;;;81.83;;
13605;SDS011;6874;52.084;5.090;2023-05-07T07:37:56;86.33;;;83.43;;
13605;SDS011;6874;52.084;5.090;2023-05-07T07:40:22;93.40;;;90.30;;
13605;SDS011;6874;52.084;5.090;2023-05-07T07:42:48;92.87;;;89.77;;
13605;SDS011;6874;52.084;5.090;2023-05-07T07:45:13;93.97;;;90.83;;
13605;SDS011;6874;52.084;5.090;2023-05-07T07:47:39;89.10;;;86.10;;
13605;SDS011;6874;52.084;5.090;2023-05-07T07:50:05;93.77;;;90.60;;
13605;SDS011;6874;52.084;5.090;2023-05-07T07:52:32;93.30;;;90.17;;
13605;SDS011;6874;52.084;5.090;2023-05-07T07:54:57;91.63;;;88.53;;
13605;SDS011;6874;52.084;5.090;2023-05-07T07:57:23;92.60;;;89.50;;
13605;SDS011;6874;52.084;5.090;2023-05-07T07:59:49;101.53;;;98.13;;
13605;SDS011;6874;52.084;5.090;2023-05-07T08:02:15;93.67;;;90.50;;
13605;SDS011;6874;52.084;5.090;2023-05-07T08:04:40;92.30;;;89.20;;
13605;SDS011;6874;52.084;5.090;2023-05-07T08:07:08;88.97;;;85.93;;
13605;SDS011;6874;52.084;5.090;2023-05-07T08:09:34;91.87;;;88.73;;
13605;SDS011;6874;52.084;5.090;2023-05-07T08:12:00;92.43;;;89.30;;
13605;SDS011;6874;52.084;5.090;2023-05-07T08:14:26;96.57;;;93.27;;
13605;SDS011;6874;52.084;5.090;2023-05-07T08:16:53;97.57;;;94.27;;
13605;SDS011;6874;52.084;5.090;2023-05-07T08:19:19;94.57;;;91.37;;
13605;SDS011;6874;52.084;5.090;2023-05-07T08:21:45;99.37;;;95.97;;
13605;SDS011;6874;52.084;5.090;2023-05-07T08:24:12;97.87;;;94.57;;
13605;SDS011;6874;52.084;5.090;2023-05-07T08:26:38;102.17;;;98.70;;
13605;SDS011;6874;52.084;5.090;2023-05-07T08:29:04;101.37;;;97.93;;
13605;SDS011;6874;52.084;5.090;2023-05-07T08:31:30;100.60;;;97.13;;
13605;SDS011;6874;52.084;5.090;2023-05-07T08:33:55;107.47;;;103.73;;
13605;SDS011;6874;52.084;5.090;2023-05-07T08:36:22;103.27;;;99.67;;
13605;SDS011;6874;52.084;5.090;2023-05-07T08:38:47;103.27;;;99.63;;
13605;SDS011;6874;52.084;5.090;2023-05-07T08:41:14;97.00;;;93.60;;
13605;SDS011;6874;52.084;5.090;2023-05-07T08:43:40;96.67;;;93.33;;
13605;SDS011;6874;52.084;5.090;2023-05-07T08:46:06;94.13;;;90.93;;
13605;SDS011;6874;52.084;5.090;2023-05-07T08:48:34;99.13;;;95.73;;
13605;SDS011;6874;52.084;5.090;2023-05-07T08:51:00;102.63;;;99.17;;
13605;SDS011;6874;52.084;5.090;2023-05-07T08:53:26;108.20;;;104.47;;
13605;SDS011;6874;52.084;5.090;2023-05-07T08:55:52;115.70;;;111.67;;
13605;SDS011;6874;52.084;5.090;2023-05-07T08:58:18;113.67;;;109.80;;
13605;SDS011;6874;52.084;5.090;2023-05-07T09:00:44;117.13;;;113.10;;
13605;SDS011;6874;52.084;5.090;2023-05-07T09:03:09;114.77;;;110.83;;
13605;SDS011;6874;52.084;5.090;2023-05-07T09:05:39;114.20;;;110.27;;
13605;SDS011;6874;52.084;5.090;2023-05-07T09:08:05;104.80;;;101.13;;
13605;SDS011;6874;52.084;5.090;2023-05-07T09:10:34;101.33;;;97.80;;
13605;SDS011;6874;52.084;5.090;2023-05-07T09:13:00;90.60;;;87.40;;
13605;SDS011;6874;52.084;5.090;2023-05-07T09:15:28;90.77;;;87.57;;
13605;SDS011;6874;52.084;5.090;2023-05-07T09:17:53;86.30;;;83.30;;
13605;SDS011;6874;52.084;5.090;2023-05-07T09:20:23;85.77;;;82.77;;
13605;SDS011;6874;52.084;5.090;2023-05-07T09:22:49;91.17;;;87.97;;
13605;SDS011;6874;52.084;5.090;2023-05-07T09:25:16;103.43;;;99.83;;
13605;SDS011;6874;52.084;5.090;2023-05-07T09:27:53;124.43;;;120.10;;
13605;SDS011;6874;52.084;5.090;2023-05-07T09:30:18;133.67;;;128.97;;
13605;SDS011;6874;52.084;5.090;2023-05-07T09:32:44;146.80;;;141.53;;
13605;SDS011;6874;52.084;5.090;2023-05-07T09:35:16;158.47;;;152.73;;
13605;SDS011;6874;52.084;5.090;2023-05-07T09:37:42;151.20;;;145.70;;
13605;SDS011;6874;52.084;5.090;2023-05-07T09:40:08;145.63;;;140.27;;
13605;SDS011;6874;52.084;5.090;2023-05-07T09:42:49;136.07;;;130.97;;
13605;SDS011;6874;52.084;5.090;2023-05-07T09:45:15;128.33;;;123.43;;
13605;SDS011;6874;52.084;5.090;2023-05-07T09:47:46;133.47;;;128.30;;
13605;SDS011;6874;52.084;5.090;2023-05-07T09:50:14;128.50;;;123.57;;
13605;SDS011;6874;52.084;5.090;2023-05-07T09:52:41;137.10;;;131.80;;
13605;SDS011;6874;52.084;5.090;2023-05-07T09:55:08;152.77;;;146.87;;
13605;SDS011;6874;52.084;5.090;2023-05-07T09:57:35;157.93;;;151.77;;
13605;SDS011;6874;52.084;5.090;2023-05-07T10:00:02;170.27;;;163.60;;
13605;SDS011;6874;52.084;5.090;2023-05-07T10:02:33;164.20;;;157.87;;
13605;SDS011;6874;52.084;5.090;2023-05-07T10:05:01;164.27;;;157.90;;
13605;SDS011;6874;52.084;5.090;2023-05-07T10:07:28;164.27;;;158.07;;
13605;SDS011;6874;52.084;5.090;2023-05-07T10:09:55;162.23;;;156.13;;
13605;SDS011;6874;52.084;5.090;2023-05-07T10:12:20;157.93;;;152.00;;
13605;SDS011;6874;52.084;5.090;2023-05-07T10:14:46;155.13;;;149.33;;
13605;SDS011;6874;52.084;5.090;2023-05-07T10:17:13;141.27;;;135.97;;
13605;SDS011;6874;52.084;5.090;2023-05-07T10:19:41;140.23;;;134.93;;
13605;SDS011;6874;52.084;5.090;2023-05-07T10:22:09;134.97;;;129.87;;
13605;SDS011;6874;52.084;5.090;2023-05-07T10:24:36;133.27;;;128.13;;
13605;SDS011;6874;52.084;5.090;2023-05-07T10:27:04;137.87;;;132.53;;
13605;SDS011;6874;52.084;5.090;2023-05-07T10:29:39;144.57;;;139.00;;
13605;SDS011;6874;52.084;5.090;2023-05-07T10:32:39;150.27;;;144.50;;
13605;SDS011;6874;52.084;5.090;2023-05-07T10:35:20;152.77;;;146.97;;
13605;SDS011;6874;52.084;5.090;2023-05-07T10:37:49;169.13;;;162.63;;
13605;SDS011;6874;52.084;5.090;2023-05-07T10:40:16;217.17;;;208.87;;
13605;SDS011;6874;52.084;5.090;2023-05-07T10:45:22;261.37;;;251.77;;
13605;SDS011;6874;52.084;5.090;2023-05-07T10:50:39;263.80;;;254.60;;
13605;SDS011;6874;52.084;5.090;2023-05-07T11:00:48;69.87;;;67.50;;
13605;SDS011;6874;52.084;5.090;2023-05-07T11:03:14;62.20;;;60.10;;
13605;SDS011;6874;52.084;5.090;2023-05-07T11:05:40;59.00;;;57.10;;
13605;SDS011;6874;52.084;5.090;2023-05-07T11:08:07;66.80;;;64.63;;
13605;SDS011;6874;52.084;5.090;2023-05-07T11:13:19;64.73;;;62.63;;
13605;SDS011;6874;52.084;5.090;2023-05-07T11:16:19;67.97;;;65.77;;
13605;SDS011;6874;52.084;5.090;2023-05-07T11:18:46;73.47;;;71.07;;
13605;SDS011;6874;52.084;5.090;2023-05-07T11:21:16;79.17;;;76.57;;
13605;SDS011;6874;52.084;5.090;2023-05-07T11:24:00;79.60;;;77.00;;
13605;SDS011;6874;52.084;5.090;2023-05-07T11:26:28;89.70;;;86.80;;
13605;SDS011;6874;52.084;5.090;2023-05-07T11:29:10;89.53;;;86.63;;
13605;SDS011;6874;52.084;5.090;2023-05-07T11:31:40;90.40;;;87.50;;
13605;SDS011;6874;52.084;5.090;2023-05-07T11:34:06;86.50;;;83.70;;
13605;SDS011;6874;52.084;5.090;2023-05-07T11:36:32;67.70;;;65.50;;
13605;SDS011;6874;52.084;5.090;2023-05-07T11:38:58;60.47;;;58.47;;
13605;SDS011;6874;52.084;5.090;2023-05-07T11:41:33;50.60;;;48.97;;
13605;SDS011;6874;52.084;5.090;2023-05-07T11:44:00;48.73;;;47.13;;
13605;SDS011;6874;52.084;5.090;2023-05-07T11:46:26;57.17;;;55.27;;
13605;SDS011;6874;52.084;5.090;2023-05-07T11:48:53;59.80;;;57.83;;
13605;SDS011;6874;52.084;5.090;2023-05-07T11:51:21;54.60;;;52.77;;
13605;SDS011;6874;52.084;5.090;2023-05-07T11:53:50;61.57;;;59.50;;
13605;SDS011;6874;52.084;5.090;2023-05-07T11:56:17;59.87;;;57.87;;
13605;SDS011;6874;52.084;5.090;2023-05-07T11:58:43;68.53;;;66.27;;
13605;SDS011;6874;52.084;5.090;2023-05-07T12:01:11;70.33;;;68.00;;
13605;SDS011;6874;52.084;5.090;2023-05-07T12:03:37;72.97;;;70.50;;
13605;SDS011;6874;52.084;5.090;2023-05-07T12:06:09;79.00;;;76.27;;
13605;SDS011;6874;52.084;5.090;2023-05-07T12:08:36;67.17;;;64.87;;
13605;SDS011;6874;52.084;5.090;2023-05-07T12:11:03;64.73;;;62.53;;
13605;SDS011;6874;52.084;5.090;2023-05-07T12:13:41;62.43;;;60.27;;
13605;SDS011;6874;52.084;5.090;2023-05-07T12:16:06;75.30;;;72.67;;
13605;SDS011;6874;52.084;5.090;2023-05-07T12:18:33;80.27;;;77.43;;
13605;SDS011;6874;52.084;5.090;2023-05-07T12:21:00;86.30;;;83.23;;
13605;SDS011;6874;52.084;5.090;2023-05-07T12:23:26;95.47;;;92.07;;
13605;SDS011;6874;52.084;5.090;2023-05-07T12:25:52;116.27;;;112.23;;
13605;SDS011;6874;52.084;5.090;2023-05-07T12:28:18;125.87;;;121.47;;
13605;SDS011;6874;52.084;5.090;2023-05-07T12:30:44;137.90;;;132.93;;
13605;SDS011;6874;52.084;5.090;2023-05-07T12:33:11;152.67;;;147.00;;
13605;SDS011;6874;52.084;5.090;2023-05-07T12:35:41;141.30;;;136.07;;
13605;SDS011;6874;52.084;5.090;2023-05-07T12:38:08;136.63;;;131.30;;
13605;SDS011;6874;52.084;5.090;2023-05-07T12:40:42;133.00;;;127.87;;
13605;SDS011;6874;52.084;5.090;2023-05-07T12:43:42;151.70;;;145.83;;
13605;SDS011;6874;52.084;5.090;2023-05-07T12:46:01;160.57;;;154.30;;
13605;SDS011;6874;52.084;5.090;2023-05-07T12:48:29;168.70;;;162.07;;
13605;SDS011;6874;52.084;5.090;2023-05-07T12:50:55;169.87;;;162.93;;
13605;SDS011;6874;52.084;5.090;2023-05-07T12:53:23;164.97;;;158.27;;
13605;SDS011;6874;52.084;5.090;2023-05-07T12:55:51;169.17;;;162.40;;
13605;SDS011;6874;52.084;5.090;2023-05-07T12:58:19;186.57;;;178.90;;
13605;SDS011;6874;52.084;5.090;2023-05-07T13:00:49;194.53;;;186.60;;
13605;SDS011;6874;52.084;5.090;2023-05-07T13:03:27;194.17;;;186.03;;
13605;SDS011;6874;52.084;5.090;2023-05-07T13:05:55;187.07;;;179.33;;
13605;SDS011;6874;52.084;5.090;2023-05-07T13:08:23;202.17;;;193.97;;
13605;SDS011;6874;52.084;5.090;2023-05-07T13:10:50;204.30;;;195.93;;
13605;SDS011;6874;52.084;5.090;2023-05-07T13:13:19;187.60;;;179.70;;
13605;SDS011;6874;52.084;5.090;2023-05-07T13:15:45;184.47;;;176.83;;
13605;SDS011;6874;52.084;5.090;2023-05-07T13:18:11;176.77;;;169.43;;
13605;SDS011;6874;52.084;5.090;2023-05-07T13:20:37;186.80;;;179.00;;
13605;SDS011;6874;52.084;5.090;2023-05-07T13:23:03;193.07;;;185.77;;
13605;SDS011;6874;52.084;5.090;2023-05-07T13:25:29;192.70;;;185.53;;
13605;SDS011;6874;52.084;5.090;2023-05-07T13:27:56;184.43;;;177.50;;
13605;SDS011;6874;52.084;5.090;2023-05-07T13:30:22;187.10;;;180.20;;
13605;SDS011;6874;52.084;5.090;2023-05-07T13:32:48;193.43;;;186.23;;
13605;SDS011;6874;52.084;5.090;2023-05-07T13:35:14;193.93;;;186.83;;
13605;SDS011;6874;52.084;5.090;2023-05-07T13:37:39;185.60;;;178.83;;
13605;SDS011;6874;52.084;5.090;2023-05-07T13:40:05;197.57;;;190.30;;
13605;SDS011;6874;52.084;5.090;2023-05-07T13:42:31;197.27;;;190.13;;
13605;SDS011;6874;52.084;5.090;2023-05-07T13:44:57;184.77;;;178.10;;
13605;SDS011;6874;52.084;5.090;2023-05-07T13:47:22;163.27;;;157.53;;
13605;SDS011;6874;52.084;5.090;2023-05-07T13:49:48;144.63;;;139.67;;
13605;SDS011;6874;52.084;5.090;2023-05-07T13:52:15;124.63;;;120.47;;
13605;SDS011;6874;52.084;5.090;2023-05-07T13:54:41;126.07;;;121.90;;
13605;SDS011;6874;52.084;5.090;2023-05-07T13:57:07;124.50;;;120.30;;
13605;SDS011;6874;52.084;5.090;2023-05-07T13:59:32;126.80;;;122.50;;
13605;SDS011;6874;52.084;5.090;2023-05-07T14:01:58;118.37;;;114.37;;
13605;SDS011;6874;52.084;5.090;2023-05-07T14:04:24;121.90;;;117.80;;
13605;SDS011;6874;52.084;5.090;2023-05-07T14:06:50;129.30;;;124.97;;
13605;SDS011;6874;52.084;5.090;2023-05-07T14:09:16;129.07;;;124.70;;
13605;SDS011;6874;52.084;5.090;2023-05-07T14:11:42;128.93;;;124.53;;
13605;SDS011;6874;52.084;5.090;2023-05-07T14:14:07;124.53;;;120.27;;
13605;SDS011;6874;52.084;5.090;2023-05-07T14:16:35;124.30;;;120.10;;
13605;SDS011;6874;52.084;5.090;2023-05-07T14:19:03;129.60;;;125.23;;
13605;SDS011;6874;52.084;5.090;2023-05-07T14:21:29;128.10;;;123.80;;
13605;SDS011;6874;52.084;5.090;2023-05-07T14:23:55;121.60;;;117.47;;
13605;SDS011;6874;52.084;5.090;2023-05-07T14:26:21;138.43;;;133.67;;
13605;SDS011;6874;52.084;5.090;2023-05-07T14:28:48;160.87;;;155.37;;